createdAt,value
2022-11-02T00:00:57.834Z,95.11
2022-11-02T00:03:24.806Z,95.47
2022-11-02T00:05:51.895Z,93.98
2022-11-02T00:08:18.906Z,94.99
2022-11-02T00:10:45.954Z,94.48
2022-11-02T00:13:12.940Z,93.55
2022-11-02T00:15:40.053Z,93.25
2022-11-02T00:18:12.562Z,92.42
2022-11-02T00:20:47.578Z,93.68
2022-11-02T00:23:15.731Z,94.63
2022-11-02T00:25:48.152Z,95.75
2022-11-02T00:28:15.792Z,94.08
2022-11-02T00:30:43.760Z,94.61
2022-11-02T00:33:10.799Z,94.23
2022-11-02T00:35:38.495Z,94.30
2022-11-02T00:38:06.113Z,94.13
2022-11-02T00:40:33.418Z,94.15
2022-11-02T00:43:00.362Z,92.94
2022-11-02T00:45:27.315Z,93.10
2022-11-02T00:47:57.569Z,92.29
2022-11-02T00:50:24.651Z,92.85
2022-11-02T00:52:51.553Z,92.38
2022-11-02T00:55:18.668Z,93.05
2022-11-02T00:57:45.759Z,93.52
2022-11-02T01:00:15.294Z,93.52
2022-11-02T01:02:43.304Z,92.62
2022-11-02T01:05:11.524Z,93.55
2022-11-02T01:07:39.315Z,94.01
2022-11-02T01:10:10.888Z,93.64
2022-11-02T01:12:41.241Z,93.46
2022-11-02T01:15:10.401Z,93.77
2022-11-02T01:17:38.116Z,94.10
2022-11-02T01:20:06.071Z,93.78
2022-11-02T01:22:33.242Z,93.23
2022-11-02T01:25:00.201Z,94.06
2022-11-02T01:27:27.138Z,94.79
2022-11-02T01:29:54.153Z,94.46
2022-11-02T01:32:21.135Z,93.92
2022-11-02T01:34:48.223Z,93.69
2022-11-02T01:37:15.219Z,94.41
2022-11-02T01:39:42.263Z,93.59
2022-11-02T01:42:22.290Z,94.36
2022-11-02T01:44:49.328Z,93.13
2022-11-02T01:47:32.721Z,93.57
2022-11-02T01:50:27.353Z,92.82
2022-11-02T01:52:54.643Z,93.84
2022-11-02T01:55:32.674Z,93.84
2022-11-02T01:58:10.387Z,94.41
2022-11-02T02:00:38.717Z,93.72
2022-11-02T02:03:16.857Z,92.54
2022-11-02T02:06:11.585Z,93.73
2022-11-02T02:08:46.533Z,93.37
2022-11-02T02:11:40.533Z,93.14
2022-11-02T02:14:20.089Z,92.21
2022-11-02T02:17:00.604Z,93.29
2022-11-02T02:20:07.597Z,93.19
2022-11-02T02:23:27.533Z,94.02
2022-11-02T02:26:28.620Z,94.09
2022-11-02T02:28:58.133Z,94.43
2022-11-02T02:32:00.264Z,93.80
2022-11-02T02:35:01.261Z,93.53
2022-11-02T02:37:45.842Z,92.82
2022-11-02T02:40:26.793Z,93.38
2022-11-02T02:43:04.849Z,94.04
2022-11-02T02:45:52.903Z,94.08
2022-11-02T02:48:25.388Z,93.91
2022-11-02T02:51:09.466Z,93.56
2022-11-02T02:53:46.341Z,93.97
2022-11-02T02:56:17.669Z,93.20
2022-11-02T02:59:25.935Z,93.90
2022-11-02T03:01:54.508Z,93.79
2022-11-02T03:04:21.526Z,94.05
2022-11-02T03:06:59.964Z,94.00
2022-11-02T03:09:44.125Z,94.06
2022-11-02T03:12:40.425Z,93.71
2022-11-02T03:15:40.340Z,93.34
2022-11-02T03:18:36.044Z,93.13
2022-11-02T03:21:30.365Z,92.91
2022-11-02T03:24:32.354Z,93.06
2022-11-02T03:27:30.494Z,93.42
2022-11-02T03:30:22.780Z,93.10
2022-11-02T03:33:16.929Z,92.63
2022-11-02T03:36:07.459Z,91.78
2022-11-02T03:38:46.118Z,93.30
2022-11-02T03:41:15.530Z,93.70
2022-11-02T03:43:43.985Z,92.54
2022-11-02T03:46:12.142Z,93.69
2022-11-02T03:48:48.895Z,93.14
2022-11-02T03:51:22.580Z,92.77
2022-11-02T03:53:58.874Z,92.96
2022-11-02T03:56:36.292Z,92.96
2022-11-02T03:59:03.724Z,92.86
2022-11-02T04:01:36.876Z,93.12
2022-11-02T04:04:05.104Z,92.96
2022-11-02T04:06:32.702Z,93.09
2022-11-02T04:09:00.042Z,93.35
2022-11-02T04:11:47.046Z,93.40
2022-11-02T04:14:32.888Z,93.10
2022-11-02T04:17:18.357Z,93.21
2022-11-02T04:19:48.789Z,92.49
2022-11-02T04:22:36.528Z,93.53
2022-11-02T04:25:20.360Z,93.00
2022-11-02T04:27:54.345Z,92.37
2022-11-02T04:30:24.085Z,91.86
2022-11-02T04:33:10.343Z,92.13
2022-11-02T04:35:37.954Z,92.68
2022-11-02T04:38:23.571Z,92.12
2022-11-02T04:41:10.625Z,92.19
2022-11-02T04:43:37.721Z,93.40
2022-11-02T04:46:04.876Z,92.82
2022-11-02T04:48:31.807Z,93.04
2022-11-02T04:50:59.101Z,93.36
2022-11-02T04:53:26.035Z,92.75
2022-11-02T04:55:52.989Z,92.34
2022-11-02T04:58:19.953Z,92.64
2022-11-02T05:00:46.896Z,92.37
2022-11-02T05:03:13.820Z,92.23
2022-11-02T05:05:40.777Z,91.78
2022-11-02T05:08:07.835Z,92.76
2022-11-02T05:10:37.128Z,91.38
2022-11-02T05:13:04.220Z,92.19
2022-11-02T05:15:31.362Z,91.20
2022-11-02T05:17:58.340Z,91.50
2022-11-02T05:20:25.329Z,91.89
2022-11-02T05:22:52.239Z,91.17
2022-11-02T05:25:19.254Z,91.71
2022-11-02T05:27:46.222Z,92.03
2022-11-02T05:30:14.475Z,91.66
2022-11-02T05:32:41.582Z,92.44
2022-11-02T05:35:09.205Z,90.68
2022-11-02T05:37:36.143Z,91.25
2022-11-02T05:40:03.395Z,90.46
2022-11-02T05:42:30.484Z,91.46
2022-11-02T05:44:57.494Z,90.96
2022-11-02T05:47:24.488Z,91.76
2022-11-02T05:49:51.425Z,91.03
2022-11-02T05:52:18.336Z,90.97
2022-11-02T05:54:45.272Z,90.71
2022-11-02T05:57:12.545Z,90.41
2022-11-02T05:59:39.815Z,91.48
2022-11-02T06:02:07.219Z,90.48
2022-11-02T06:04:34.179Z,90.86
2022-11-02T06:07:01.137Z,91.76
2022-11-02T06:09:31.163Z,91.35
2022-11-02T06:11:58.129Z,91.23
2022-11-02T06:14:25.075Z,92.26
2022-11-02T06:16:52.030Z,92.11
2022-11-02T06:19:19.134Z,91.38
2022-11-02T06:21:48.415Z,92.50
2022-11-02T06:24:18.859Z,91.78
2022-11-02T06:26:46.895Z,92.35
2022-11-02T06:29:13.847Z,92.71
2022-11-02T06:31:40.816Z,91.97
2022-11-02T06:34:07.824Z,92.21
2022-11-02T06:36:34.955Z,92.19
2022-11-02T06:39:01.931Z,92.00
2022-11-02T06:41:28.957Z,91.97
2022-11-02T06:43:56.609Z,90.56
2022-11-02T06:46:23.615Z,91.87
2022-11-02T06:48:50.584Z,92.10
2022-11-02T06:51:17.605Z,90.97
2022-11-02T06:53:44.552Z,91.38
2022-11-02T06:56:20.547Z,90.53
2022-11-02T06:58:53.676Z,91.31
2022-11-02T07:01:24.118Z,91.15
2022-11-02T07:04:04.611Z,90.43
2022-11-02T07:06:40.155Z,90.32
2022-11-02T07:09:27.576Z,90.26
2022-11-02T07:12:02.816Z,91.12
2022-11-02T07:14:42.061Z,90.03
2022-11-02T07:17:31.987Z,89.46
2022-11-02T07:20:14.956Z,89.42
2022-11-02T07:22:42.955Z,88.87
2022-11-02T07:25:10.183Z,89.26
2022-11-02T07:27:43.292Z,89.33
2022-11-02T07:30:20.003Z,88.84
2022-11-02T07:32:50.698Z,89.07
2022-11-02T07:35:21.354Z,88.16
2022-11-02T07:38:37.747Z,88.00
2022-11-02T07:41:10.775Z,87.82
2022-11-02T07:43:43.238Z,86.93
2022-11-02T07:46:11.697Z,87.18
2022-11-02T07:48:39.394Z,86.73
2022-11-02T07:51:07.731Z,85.83
2022-11-02T07:53:35.365Z,85.44
2022-11-02T07:56:03.886Z,84.99
2022-11-02T07:58:31.090Z,84.78
2022-11-02T08:01:00.041Z,84.11
2022-11-02T08:03:30.794Z,84.14
2022-11-02T08:06:02.957Z,83.86
2022-11-02T08:08:30.092Z,83.03
2022-11-02T08:11:07.177Z,82.54
2022-11-02T08:13:38.489Z,82.70
2022-11-02T08:16:05.696Z,83.26
2022-11-02T08:18:32.898Z,82.51
2022-11-02T08:21:00.324Z,82.73
2022-11-02T08:23:30.419Z,82.24
2022-11-02T08:26:00.240Z,82.88
2022-11-02T08:28:32.350Z,82.67
2022-11-02T08:30:59.587Z,82.66
2022-11-02T08:33:28.238Z,81.84
2022-11-02T08:36:01.183Z,81.97
2022-11-02T08:38:28.388Z,81.49
2022-11-02T08:40:55.780Z,81.72
2022-11-02T08:43:23.164Z,81.37
2022-11-02T08:48:44.164Z,81.87
2022-11-02T08:51:11.210Z,82.05
2022-11-02T08:53:38.484Z,82.00
2022-11-02T08:56:15.026Z,82.00
2022-11-02T08:58:42.149Z,82.74
2022-11-02T09:01:09.119Z,82.41
2022-11-02T09:03:36.271Z,82.13
2022-11-02T09:06:12.376Z,81.90
2022-11-02T09:08:39.424Z,81.68
2022-11-02T09:11:09.130Z,81.50
2022-11-02T09:13:37.913Z,81.50
2022-11-02T09:16:05.305Z,82.08
2022-11-02T09:18:35.414Z,81.71
2022-11-02T09:21:04.872Z,79.93
2022-11-02T09:23:33.960Z,79.62
2022-11-02T09:26:08.378Z,79.80
2022-11-02T09:28:35.476Z,78.99
2022-11-02T09:31:06.027Z,79.02
2022-11-02T09:33:36.428Z,78.53
2022-11-02T09:36:05.781Z,79.14
2022-11-02T09:38:35.636Z,79.13
2022-11-02T09:42:01.539Z,78.68
2022-11-02T09:45:03.210Z,78.58
2022-11-02T09:50:28.708Z,79.08
2022-11-02T09:53:04.846Z,77.97
2022-11-02T09:55:41.641Z,78.05
2022-11-02T09:58:18.252Z,77.60
2022-11-02T10:01:16.663Z,76.76
2022-11-02T10:04:28.984Z,76.46
2022-11-02T10:07:26.920Z,76.90
2022-11-02T10:10:38.525Z,76.26
2022-11-02T10:13:33.293Z,75.78
2022-11-02T10:16:22.306Z,75.43
2022-11-02T10:18:53.865Z,76.05
2022-11-02T10:21:45.437Z,75.74
2022-11-02T10:24:33.703Z,73.67
2022-11-02T10:27:09.109Z,74.46
2022-11-02T10:30:05.333Z,73.31
2022-11-02T10:32:38.890Z,73.76
2022-11-02T10:36:18.610Z,73.07
2022-11-02T10:39:32.161Z,72.76
2022-11-02T10:43:06.553Z,72.19
2022-11-02T10:46:06.983Z,71.56
2022-11-02T10:49:06.801Z,71.50
2022-11-02T10:51:45.751Z,70.96
2022-11-02T10:54:20.540Z,70.92
2022-11-02T10:56:51.135Z,70.52
2022-11-02T10:59:25.860Z,69.76
2022-11-02T11:01:59.047Z,70.46
2022-11-02T11:04:37.253Z,68.89
2022-11-02T11:07:31.406Z,69.55
2022-11-02T11:09:58.405Z,68.70
2022-11-02T11:12:41.196Z,68.06
2022-11-02T11:16:03.516Z,68.88
2022-11-02T11:21:19.385Z,68.11
2022-11-02T11:23:46.367Z,67.19
2022-11-02T11:26:30.846Z,67.55
2022-11-02T11:29:00.653Z,68.44
2022-11-02T11:31:27.686Z,68.10
2022-11-02T11:34:22.175Z,68.73
2022-11-02T11:36:49.371Z,70.83
2022-11-02T11:39:36.124Z,69.44
2022-11-02T11:42:05.540Z,69.69
2022-11-02T11:44:34.363Z,68.19
2022-11-02T11:47:01.571Z,69.55
2022-11-02T11:52:32.206Z,69.08
2022-11-02T11:55:19.009Z,68.85
2022-11-02T11:57:46.295Z,70.18
2022-11-02T12:00:28.866Z,70.97
2022-11-02T12:03:14.466Z,69.21
2022-11-02T12:06:40.729Z,70.73
2022-11-02T12:09:18.180Z,70.60
2022-11-02T12:12:37.283Z,69.62
2022-11-02T12:15:48.371Z,70.23
2022-11-02T12:18:47.905Z,68.25
2022-11-02T12:21:38.861Z,69.68
2022-11-02T12:24:57.393Z,70.08
2022-11-02T12:28:13.273Z,68.17
2022-11-02T12:31:35.986Z,66.03
2022-11-02T12:34:33.882Z,65.61
2022-11-02T12:37:37.179Z,65.17
2022-11-02T12:40:11.216Z,66.23
2022-11-02T12:43:09.778Z,66.69
2022-11-02T12:46:17.430Z,66.93
2022-11-02T12:49:20.252Z,69.81
2022-11-02T12:52:44.201Z,68.52
2022-11-02T12:55:22.984Z,68.40
2022-11-02T12:57:52.116Z,67.71
2022-11-02T13:00:22.301Z,69.22
2022-11-02T13:03:08.163Z,66.98
2022-11-02T13:05:48.449Z,65.48
2022-11-02T13:08:34.660Z,63.52
2022-11-02T13:11:13.391Z,62.03
2022-11-02T13:13:55.778Z,61.75
2022-11-02T13:16:58.935Z,60.32
2022-11-02T13:20:18.445Z,58.97
2022-11-02T13:23:21.201Z,56.64
2022-11-02T13:26:00.034Z,55.81
2022-11-02T13:28:44.654Z,57.12
2022-11-02T13:32:06.482Z,57.10
2022-11-02T13:34:46.056Z,58.34
2022-11-02T13:37:29.865Z,57.25
2022-11-02T13:40:02.911Z,55.50
2022-11-02T13:43:19.679Z,55.08
2022-11-02T13:46:28.923Z,54.48
2022-11-02T13:49:16.811Z,54.51
2022-11-02T13:51:54.935Z,56.23
2022-11-02T13:54:51.109Z,54.75
2022-11-02T13:57:44.600Z,57.59
2022-11-02T14:00:46.499Z,58.88
2022-11-02T14:03:25.373Z,57.25
2022-11-02T14:06:10.894Z,58.64
2022-11-02T14:08:59.714Z,58.66
2022-11-02T14:11:41.366Z,58.52
2022-11-02T14:14:11.289Z,59.11
2022-11-02T14:17:09.992Z,59.34
2022-11-02T14:19:49.146Z,59.58
2022-11-02T14:22:20.555Z,62.55
2022-11-02T14:24:49.339Z,58.65
2022-11-02T14:27:20.025Z,59.67
2022-11-02T14:29:47.149Z,60.30
2022-11-02T14:32:24.148Z,60.21
2022-11-02T14:35:41.279Z,60.36
2022-11-02T14:38:49.989Z,60.57
2022-11-02T14:41:43.033Z,61.04
2022-11-02T14:44:39.031Z,60.19
2022-11-02T14:47:32.089Z,60.63
2022-11-02T14:50:44.281Z,60.18
2022-11-02T14:53:29.330Z,60.28
2022-11-02T14:56:04.086Z,60.28
2022-11-02T14:58:51.812Z,60.02
2022-11-02T15:01:19.766Z,60.47
2022-11-02T15:03:48.472Z,60.75
2022-11-02T15:06:25.697Z,61.47
2022-11-02T15:08:58.687Z,61.05
2022-11-02T15:11:51.321Z,60.81
2022-11-02T15:14:36.699Z,60.81
2022-11-02T15:17:26.489Z,60.04
2022-11-02T15:20:16.178Z,60.33
2022-11-02T15:22:58.876Z,61.46
2022-11-02T15:25:36.805Z,60.42
2022-11-02T15:28:26.452Z,58.66
2022-11-02T15:31:04.053Z,60.11
2022-11-02T15:34:03.921Z,62.57
2022-11-02T15:36:38.515Z,59.76
2022-11-02T15:39:23.682Z,60.10
2022-11-02T15:42:37.582Z,60.85
2022-11-02T15:46:37.306Z,60.39
2022-11-02T15:49:55.889Z,61.18
2022-11-02T15:53:24.504Z,63.29
2022-11-02T15:56:38.703Z,60.97
2022-11-02T15:59:46.157Z,63.04
2022-11-02T16:03:03.175Z,61.75
2022-11-02T16:05:47.316Z,62.87
2022-11-02T16:08:32.778Z,62.75
2022-11-02T16:11:23.784Z,64.35
2022-11-02T16:14:09.389Z,63.28
2022-11-02T16:16:50.846Z,63.92
2022-11-02T16:19:22.483Z,63.72
2022-11-02T16:21:50.711Z,66.33
2022-11-02T16:24:19.465Z,64.13
2022-11-02T16:26:49.094Z,65.87
2022-11-02T16:29:31.393Z,65.42
2022-11-02T16:31:58.477Z,66.44
2022-11-02T16:34:32.342Z,65.27
2022-11-02T16:37:10.056Z,66.41
2022-11-02T16:39:41.900Z,66.54
2022-11-02T16:42:35.788Z,66.08
2022-11-02T16:45:29.027Z,67.16
2022-11-02T16:48:06.422Z,66.23
2022-11-02T16:50:33.886Z,67.03
2022-11-02T16:53:02.742Z,66.80
2022-11-02T16:55:45.545Z,66.78
2022-11-02T16:58:23.132Z,67.88
2022-11-02T17:01:17.470Z,68.28
2022-11-02T17:03:47.698Z,68.16
2022-11-02T17:06:16.175Z,67.55
2022-11-02T17:08:53.756Z,67.10
2022-11-02T17:11:21.786Z,67.64
2022-11-02T17:14:12.831Z,68.27
2022-11-02T17:17:26.167Z,68.48
2022-11-02T17:20:27.779Z,69.39
2022-11-02T17:23:01.361Z,70.54
2022-11-02T17:25:40.414Z,70.61
2022-11-02T17:28:55.828Z,71.14
2022-11-02T17:31:40.974Z,70.69
2022-11-02T17:34:39.873Z,71.25
2022-11-02T17:37:49.943Z,71.17
2022-11-02T17:40:52.231Z,71.65
2022-11-02T17:43:36.787Z,72.52
2022-11-02T17:46:12.747Z,73.02
2022-11-02T17:48:42.494Z,73.56
2022-11-02T17:51:12.317Z,72.80
2022-11-02T17:53:39.263Z,73.12
2022-11-02T17:56:18.695Z,73.50
2022-11-02T17:59:00.339Z,73.41
2022-11-02T18:01:37.083Z,73.71
2022-11-02T18:04:06.905Z,73.96
2022-11-02T18:06:37.305Z,73.90
2022-11-02T18:09:11.419Z,73.88
2022-11-02T18:11:38.528Z,74.15
2022-11-02T18:14:08.175Z,73.83
2022-11-02T18:16:35.235Z,73.73
2022-11-02T18:19:11.896Z,74.45
2022-11-02T18:25:33.023Z,75.99
2022-11-02T18:28:16.719Z,75.23
2022-11-02T18:30:44.391Z,74.75
2022-11-02T18:33:33.092Z,74.82
2022-11-02T18:36:10.127Z,74.25
2022-11-02T18:38:37.607Z,74.93
2022-11-02T18:41:27.905Z,75.34
2022-11-02T18:44:04.074Z,74.56
2022-11-02T18:46:34.305Z,74.84
2022-11-02T18:49:01.652Z,75.11
2022-11-02T18:51:28.837Z,74.54
2022-11-02T18:54:03.872Z,74.68
2022-11-02T18:56:31.173Z,74.97
2022-11-02T18:58:59.076Z,75.02
2022-11-02T19:01:27.407Z,75.27
2022-11-02T19:04:00.180Z,75.41
2022-11-02T19:06:50.882Z,75.85
2022-11-02T19:09:20.719Z,76.90
2022-11-02T19:12:04.228Z,77.09
2022-11-02T19:14:39.817Z,77.31
2022-11-02T19:17:10.312Z,77.66
2022-11-02T19:19:40.738Z,77.61
2022-11-02T19:22:14.923Z,77.22
2022-11-02T19:24:42.486Z,78.02
2022-11-02T19:27:22.530Z,77.85
2022-11-02T19:29:50.451Z,78.03
2022-11-02T19:32:18.905Z,78.32
2022-11-02T19:34:52.852Z,78.15
2022-11-02T19:37:23.339Z,78.64
2022-11-02T19:39:50.743Z,78.99
2022-11-02T19:42:17.801Z,79.98
2022-11-02T19:44:52.332Z,79.15
2022-11-02T19:47:19.889Z,80.14
2022-11-02T19:49:46.949Z,80.04
2022-11-02T19:52:13.897Z,79.73
2022-11-02T19:54:41.022Z,79.61
2022-11-02T19:57:08.382Z,78.76
2022-11-02T19:59:35.552Z,79.98
2022-11-02T20:02:02.745Z,81.04
2022-11-02T20:04:42.382Z,81.52
2022-11-02T20:07:10.223Z,83.29
2022-11-02T20:09:46.397Z,82.61
2022-11-02T20:12:25.114Z,81.83
2022-11-02T20:14:55.447Z,81.20
2022-11-02T20:17:32.082Z,81.78
2022-11-02T20:20:04.830Z,82.29
2022-11-02T20:22:32.073Z,83.87
2022-11-02T20:24:59.085Z,85.60
2022-11-02T20:27:26.795Z,85.33
2022-11-02T20:29:53.769Z,84.23
2022-11-02T20:32:22.340Z,83.52
2022-11-02T20:34:49.398Z,83.18
2022-11-02T20:37:16.768Z,83.10
2022-11-02T20:39:53.265Z,82.14
2022-11-02T20:42:24.730Z,81.74
2022-11-02T20:44:51.806Z,82.75
2022-11-02T20:47:19.094Z,82.07
2022-11-02T20:49:50.840Z,81.38
2022-11-02T20:52:22.107Z,82.43
2022-11-02T20:54:54.407Z,82.41
2022-11-02T20:57:24.206Z,81.23
2022-11-02T20:59:51.722Z,83.52
2022-11-02T21:02:18.845Z,83.32
2022-11-02T21:04:51.199Z,84.29
2022-11-02T21:07:21.339Z,83.64
2022-11-02T21:09:48.466Z,83.54
2022-11-02T21:12:35.250Z,82.66
2022-11-02T21:15:02.679Z,82.26
2022-11-02T21:17:29.639Z,82.56
2022-11-02T21:20:02.860Z,84.11
2022-11-02T21:22:36.299Z,84.76
2022-11-02T21:25:03.854Z,84.63
2022-11-02T21:27:35.047Z,83.58
2022-11-02T21:30:02.294Z,83.19
2022-11-02T21:32:29.262Z,85.18
2022-11-02T21:34:57.167Z,83.31
2022-11-02T21:37:24.200Z,83.73
2022-11-02T21:40:06.470Z,83.50
2022-11-02T21:42:33.689Z,83.58
2022-11-02T21:45:00.814Z,84.10
2022-11-02T21:47:34.076Z,81.96
2022-11-02T21:50:02.608Z,83.23
2022-11-02T21:52:30.010Z,84.53
2022-11-02T21:54:57.075Z,83.27
2022-11-02T21:57:30.145Z,82.94
2022-11-02T21:59:57.429Z,82.56
2022-11-02T22:02:24.665Z,83.12
2022-11-02T22:04:53.924Z,82.96
2022-11-02T22:07:27.342Z,82.63
2022-11-02T22:09:54.474Z,81.35
2022-11-02T22:12:40.075Z,82.51
2022-11-02T22:15:08.647Z,82.34
2022-11-02T22:17:49.258Z,82.38
2022-11-02T22:20:17.168Z,81.96
2022-11-02T22:22:44.905Z,81.87
2022-11-02T22:25:11.987Z,80.51
2022-11-02T22:27:39.178Z,80.60
2022-11-02T22:30:07.227Z,80.31
2022-11-02T22:32:34.656Z,82.56
2022-11-02T22:35:01.747Z,82.08
2022-11-02T22:37:47.533Z,83.43
2022-11-02T22:40:14.515Z,82.75
2022-11-02T22:42:42.597Z,83.24
2022-11-02T22:45:10.452Z,82.18
2022-11-02T22:47:37.867Z,82.83
2022-11-02T22:50:06.044Z,84.75
2022-11-02T22:52:33.047Z,85.82
2022-11-02T22:55:00.066Z,85.76
2022-11-02T22:57:27.088Z,86.39
2022-11-02T22:59:54.157Z,85.64
2022-11-02T23:02:21.159Z,86.37
2022-11-02T23:04:48.999Z,85.55
2022-11-02T23:07:16.111Z,86.08
2022-11-02T23:09:43.136Z,87.11
2022-11-02T23:12:10.410Z,87.29
2022-11-02T23:14:37.340Z,87.96
2022-11-02T23:17:04.423Z,88.07
2022-11-02T23:19:33.183Z,88.75
2022-11-02T23:22:30.960Z,88.65
2022-11-02T23:28:50.101Z,87.72
2022-11-02T23:31:41.653Z,87.18
2022-11-02T23:34:13.232Z,87.61
2022-11-02T23:36:40.490Z,88.05
2022-11-02T23:39:29.511Z,88.43
2022-11-02T23:41:56.742Z,86.75
2022-11-02T23:44:23.929Z,87.00
2022-11-02T23:46:52.701Z,87.02
2022-11-02T23:49:20.067Z,87.92
2022-11-02T23:52:08.939Z,88.69
2022-11-02T23:54:55.107Z,88.09
2022-11-02T23:57:22.755Z,88.10
2022-11-02T23:59:53.666Z,89.34
